createdAt,value
2022-10-08T00:00:55.305Z,15.65
2022-10-08T00:03:59.627Z,16.35
2022-10-08T00:07:02.722Z,15.35
2022-10-08T00:10:07.624Z,15.98
2022-10-08T00:13:10.074Z,15.27
2022-10-08T00:16:14.602Z,15.38
2022-10-08T00:19:17.257Z,15.73
2022-10-08T00:22:20.385Z,15.50
2022-10-08T00:25:22.901Z,16.00
2022-10-08T00:28:25.853Z,15.27
2022-10-08T00:31:41.021Z,14.85
2022-10-08T00:34:44.156Z,16.45
2022-10-08T00:37:46.907Z,15.63
2022-10-08T00:40:50.845Z,15.05
2022-10-08T00:43:57.730Z,14.47
2022-10-08T00:47:05.821Z,14.98
2022-10-08T00:50:10.920Z,14.68
2022-10-08T00:53:14.332Z,15.50
2022-10-08T00:56:16.981Z,17.33
2022-10-08T00:59:21.381Z,16.10
2022-10-08T01:02:23.869Z,16.33
2022-10-08T01:05:35.213Z,16.58
2022-10-08T01:08:49.811Z,15.25
2022-10-08T01:12:24.201Z,15.40
2022-10-08T01:15:42.295Z,16.37
2022-10-08T01:19:09.907Z,15.77
2022-10-08T01:22:30.633Z,16.30
2022-10-08T01:25:45.705Z,16.80
2022-10-08T01:29:05.571Z,17.37
2022-10-08T01:32:17.983Z,16.53
2022-10-08T01:35:26.293Z,16.92
2022-10-08T01:38:33.534Z,17.75
2022-10-08T01:41:36.329Z,16.30
2022-10-08T01:44:47.993Z,17.55
2022-10-08T01:47:51.778Z,17.87
2022-10-08T01:51:14.931Z,21.40
2022-10-08T01:54:18.684Z,21.27
2022-10-08T01:57:24.824Z,18.33
2022-10-08T02:00:27.946Z,20.17
2022-10-08T02:03:31.128Z,17.80
2022-10-08T02:06:37.230Z,18.55
2022-10-08T02:09:44.450Z,18.42
2022-10-08T02:12:47.429Z,19.08
2022-10-08T02:16:11.302Z,19.10
2022-10-08T02:19:26.519Z,17.83
2022-10-08T02:22:44.986Z,19.30
2022-10-08T02:26:00.354Z,21.08
2022-10-08T02:29:16.286Z,20.17
2022-10-08T02:32:24.165Z,20.85
2022-10-08T02:35:34.942Z,23.33
2022-10-08T02:38:44.847Z,22.00
2022-10-08T02:41:54.919Z,23.23
2022-10-08T02:45:07.577Z,26.35
2022-10-08T02:48:16.421Z,21.17
2022-10-08T02:51:21.228Z,20.13
2022-10-08T02:54:24.446Z,18.73
2022-10-08T02:57:41.148Z,18.87
2022-10-08T03:00:57.251Z,18.27
2022-10-08T03:04:07.956Z,19.60
2022-10-08T03:07:15.280Z,17.63
2022-10-08T03:10:19.961Z,18.33
2022-10-08T03:13:24.532Z,19.17
2022-10-08T03:16:37.931Z,18.77
2022-10-08T03:19:42.584Z,19.85
2022-10-08T03:22:46.124Z,17.17
2022-10-08T03:25:49.842Z,18.23
2022-10-08T03:28:53.281Z,22.05
2022-10-08T03:31:56.077Z,20.92
2022-10-08T03:34:58.884Z,21.90
2022-10-08T03:38:02.575Z,19.60
2022-10-08T03:41:05.260Z,17.83
2022-10-08T03:44:09.744Z,20.02
2022-10-08T03:47:12.132Z,20.15
2022-10-08T03:50:15.286Z,20.12
2022-10-08T03:53:19.087Z,20.10
2022-10-08T03:56:25.971Z,19.87
2022-10-08T03:59:28.753Z,20.00
2022-10-08T04:02:32.686Z,19.02
2022-10-08T04:05:36.191Z,20.70
2022-10-08T04:08:39.907Z,19.50
2022-10-08T04:11:43.249Z,19.77
2022-10-08T04:14:46.744Z,19.98
2022-10-08T04:17:50.831Z,19.70
2022-10-08T04:21:00.571Z,19.73
2022-10-08T04:24:03.921Z,18.83
2022-10-08T04:27:06.794Z,20.00
2022-10-08T04:30:10.327Z,18.55
2022-10-08T04:33:13.928Z,19.25
2022-10-08T04:36:22.824Z,20.75
2022-10-08T04:39:25.758Z,21.27
2022-10-08T04:42:28.703Z,20.08
2022-10-08T04:45:31.460Z,18.77
2022-10-08T04:48:36.921Z,17.92
2022-10-08T04:51:46.320Z,19.12
2022-10-08T04:54:50.642Z,19.03
2022-10-08T04:57:58.421Z,17.12
2022-10-08T05:01:11.461Z,19.27
2022-10-08T05:04:15.536Z,18.90
2022-10-08T05:07:20.056Z,19.85
2022-10-08T05:10:25.049Z,18.07
2022-10-08T05:13:28.270Z,20.52
2022-10-08T05:16:33.505Z,22.75
2022-10-08T05:19:38.438Z,21.98
2022-10-08T05:22:42.459Z,20.83
2022-10-08T05:25:52.339Z,20.17
2022-10-08T05:29:05.478Z,18.87
2022-10-08T05:32:08.928Z,19.52
2022-10-08T05:35:11.617Z,18.40
2022-10-08T05:38:15.212Z,19.05
2022-10-08T05:41:31.360Z,18.87
2022-10-08T05:44:37.962Z,18.17
2022-10-08T05:47:49.413Z,17.75
2022-10-08T05:50:56.367Z,19.10
2022-10-08T05:54:04.205Z,16.67
2022-10-08T05:57:19.468Z,16.57
2022-10-08T06:00:25.620Z,16.63
2022-10-08T06:03:29.448Z,15.77
2022-10-08T06:06:32.807Z,14.95
2022-10-08T06:09:39.427Z,14.87
2022-10-08T06:12:43.009Z,16.50
2022-10-08T06:15:56.904Z,15.43
2022-10-08T06:19:08.192Z,14.90
2022-10-08T06:22:13.425Z,14.93
2022-10-08T06:25:16.900Z,14.32
2022-10-08T06:28:24.120Z,14.00
2022-10-08T06:31:35.042Z,13.43
2022-10-08T06:34:48.603Z,14.02
2022-10-08T06:37:54.824Z,13.90
2022-10-08T06:41:00.762Z,13.82
2022-10-08T06:44:05.961Z,14.57
2022-10-08T06:47:17.691Z,13.80
2022-10-08T06:50:21.905Z,13.90
2022-10-08T06:53:25.242Z,16.75
2022-10-08T06:56:30.447Z,15.43
2022-10-08T06:59:34.688Z,13.30
2022-10-08T07:02:44.976Z,14.13
2022-10-08T07:05:48.636Z,12.20
2022-10-08T07:08:56.467Z,13.68
2022-10-08T07:12:13.646Z,13.10
2022-10-08T07:15:20.483Z,12.90
2022-10-08T07:18:23.938Z,12.30
2022-10-08T07:21:30.455Z,11.65
2022-10-08T07:24:37.410Z,12.52
2022-10-08T07:27:44.731Z,12.95
2022-10-08T07:31:07.633Z,11.13
2022-10-08T07:34:12.296Z,12.40
2022-10-08T07:37:21.654Z,13.07
2022-10-08T07:40:26.740Z,12.98
2022-10-08T07:43:31.974Z,12.25
2022-10-08T07:46:37.223Z,12.27
2022-10-08T07:49:40.493Z,11.90
2022-10-08T07:52:47.910Z,11.65
2022-10-08T07:55:58.908Z,10.38
2022-10-08T07:59:04.662Z,10.65
2022-10-08T08:02:09.690Z,11.57
2022-10-08T08:05:12.904Z,10.40
2022-10-08T08:08:24.919Z,11.12
2022-10-08T08:11:30.387Z,10.07
2022-10-08T08:14:37.091Z,9.23
2022-10-08T08:17:46.174Z,10.53
2022-10-08T08:21:08.398Z,9.03
2022-10-08T08:24:15.537Z,10.05
2022-10-08T08:27:19.056Z,9.70
2022-10-08T08:30:23.423Z,10.30
2022-10-08T08:33:28.044Z,10.63
2022-10-08T08:36:48.469Z,10.27
2022-10-08T08:39:57.682Z,10.32
2022-10-08T08:43:01.430Z,9.85
2022-10-08T08:46:04.845Z,9.15
2022-10-08T08:49:19.888Z,8.77
2022-10-08T08:52:27.803Z,8.80
2022-10-08T08:55:45.406Z,9.10
2022-10-08T08:59:21.403Z,9.43
2022-10-08T09:02:34.722Z,8.57
2022-10-08T09:05:46.534Z,9.50
2022-10-08T09:09:07.560Z,9.47
2022-10-08T09:12:37.612Z,8.82
2022-10-08T09:15:43.047Z,8.70
2022-10-08T09:18:57.319Z,9.07
2022-10-08T09:22:16.786Z,7.67
2022-10-08T09:25:32.894Z,8.47
2022-10-08T09:28:40.627Z,7.72
2022-10-08T09:31:48.103Z,8.77
2022-10-08T09:34:55.867Z,7.80
2022-10-08T09:38:05.655Z,8.43
2022-10-08T09:41:19.853Z,8.50
2022-10-08T09:44:40.978Z,8.02
2022-10-08T09:48:18.442Z,8.20
2022-10-08T09:51:21.693Z,8.05
2022-10-08T09:54:29.962Z,7.10
2022-10-08T09:58:03.025Z,7.17
2022-10-08T10:01:18.459Z,7.60
2022-10-08T10:04:37.471Z,7.57
2022-10-08T10:07:47.195Z,7.20
2022-10-08T10:10:50.823Z,7.23
2022-10-08T10:13:56.561Z,6.90
2022-10-08T10:17:14.173Z,6.85
2022-10-08T10:20:27.412Z,7.35
2022-10-08T10:23:44.403Z,7.43
2022-10-08T10:26:54.642Z,7.67
2022-10-08T10:30:05.728Z,7.57
2022-10-08T10:33:25.435Z,5.90
2022-10-08T10:36:39.156Z,6.57
2022-10-08T10:39:44.139Z,7.07
2022-10-08T10:43:09.435Z,6.40
2022-10-08T10:46:19.530Z,6.17
2022-10-08T10:49:31.531Z,5.87
2022-10-08T10:52:45.315Z,5.90
2022-10-08T10:56:10.840Z,6.10
2022-10-08T10:59:45.311Z,5.87
2022-10-08T11:03:00.428Z,6.00
2022-10-08T11:06:23.423Z,5.18
2022-10-08T11:09:53.417Z,5.15
2022-10-08T11:13:11.312Z,5.68
2022-10-08T11:16:56.410Z,6.00
2022-10-08T11:20:24.703Z,5.53
2022-10-08T11:24:04.428Z,5.62
2022-10-08T11:27:16.503Z,5.53
2022-10-08T11:30:32.738Z,5.70
2022-10-08T11:33:43.508Z,5.30
2022-10-08T11:37:04.212Z,5.70
2022-10-08T11:40:33.853Z,5.70
2022-10-08T11:43:47.576Z,5.90
2022-10-08T11:47:41.571Z,5.10
2022-10-08T11:50:49.481Z,5.87
2022-10-08T11:54:13.472Z,6.00
2022-10-08T11:57:25.590Z,5.55
2022-10-08T12:00:47.457Z,6.22
2022-10-08T12:04:14.347Z,5.50
2022-10-08T12:07:33.449Z,5.80
2022-10-08T12:10:40.400Z,6.30
2022-10-08T12:14:16.378Z,5.80
2022-10-08T12:17:25.434Z,5.62
2022-10-08T12:20:38.372Z,5.90
2022-10-08T12:23:41.763Z,5.93
2022-10-08T12:27:24.674Z,6.57
2022-10-08T12:30:51.127Z,23.33
2022-10-08T12:34:12.010Z,9.68
2022-10-08T12:37:33.862Z,5.78
2022-10-08T12:40:45.758Z,6.53
2022-10-08T12:43:52.040Z,5.83
2022-10-08T12:47:07.537Z,5.95
2022-10-08T12:50:44.397Z,6.72
2022-10-08T12:53:54.459Z,7.55
2022-10-08T12:57:16.889Z,6.27
2022-10-08T13:00:26.544Z,6.07
2022-10-08T13:03:34.442Z,6.65
2022-10-08T13:06:42.613Z,7.78
2022-10-08T13:09:47.611Z,6.05
2022-10-08T13:13:38.130Z,6.20
2022-10-08T13:16:50.363Z,5.80
2022-10-08T13:20:07.166Z,5.75
2022-10-08T13:23:39.672Z,5.82
2022-10-08T13:26:53.545Z,6.18
2022-10-08T13:30:28.984Z,7.50
2022-10-08T13:33:39.128Z,6.13
2022-10-08T13:37:01.789Z,6.20
2022-10-08T13:40:10.841Z,6.07
2022-10-08T13:43:15.416Z,5.90
2022-10-08T13:46:21.414Z,6.43
2022-10-08T13:49:30.797Z,6.40
2022-10-08T13:52:42.693Z,6.50
2022-10-08T13:55:48.328Z,6.15
2022-10-08T13:58:56.063Z,6.00
2022-10-08T14:02:02.451Z,6.10
2022-10-08T14:05:15.452Z,6.23
2022-10-08T14:08:32.090Z,6.97
2022-10-08T14:11:43.561Z,6.03
2022-10-08T14:14:53.752Z,6.70
2022-10-08T14:17:58.680Z,6.80
2022-10-08T14:21:02.094Z,7.40
2022-10-08T14:24:06.815Z,7.60
2022-10-08T14:27:10.639Z,7.85
2022-10-08T14:30:21.804Z,6.20
2022-10-08T14:33:34.455Z,6.23
2022-10-08T14:36:43.824Z,7.20
2022-10-08T14:39:47.093Z,7.75
2022-10-08T14:42:57.592Z,6.78
2022-10-08T14:46:04.779Z,6.85
2022-10-08T14:49:16.414Z,7.97
2022-10-08T14:52:21.163Z,8.63
2022-10-08T14:55:37.944Z,6.50
2022-10-08T14:59:06.753Z,7.07
2022-10-08T15:02:17.382Z,6.37
2022-10-08T15:05:20.994Z,6.17
2022-10-08T15:08:26.429Z,6.40
2022-10-08T15:11:34.594Z,6.35
2022-10-08T15:14:39.908Z,6.53
2022-10-08T15:17:47.590Z,6.32
2022-10-08T15:20:56.258Z,7.13
2022-10-08T15:24:07.696Z,6.57
2022-10-08T15:27:17.266Z,7.40
2022-10-08T15:30:33.442Z,7.57
2022-10-08T15:33:47.334Z,7.50
2022-10-08T15:36:50.308Z,7.60
2022-10-08T15:39:58.542Z,10.77
2022-10-08T15:43:04.945Z,10.48
2022-10-08T15:46:15.043Z,10.10
2022-10-08T15:49:20.720Z,10.98
2022-10-08T15:52:30.900Z,12.33
2022-10-08T15:55:43.417Z,21.03
2022-10-08T15:58:53.808Z,26.40
2022-10-08T16:02:04.748Z,25.77
2022-10-08T16:05:10.446Z,22.95
2022-10-08T16:08:17.831Z,20.83
2022-10-08T16:11:36.415Z,16.93
2022-10-08T16:14:43.184Z,13.20
2022-10-08T16:17:47.858Z,12.15
2022-10-08T16:20:57.658Z,15.02
2022-10-08T16:24:02.598Z,14.67
2022-10-08T16:27:06.725Z,15.03
2022-10-08T16:30:21.706Z,13.40
2022-10-08T16:33:46.367Z,14.18
2022-10-08T16:37:03.470Z,37.95
2022-10-08T16:40:17.079Z,110.83
2022-10-08T16:43:29.336Z,126.60
2022-10-08T16:46:36.647Z,72.70
2022-10-08T16:49:58.237Z,71.62
2022-10-08T16:53:11.496Z,46.78
2022-10-08T16:56:17.568Z,48.30
2022-10-08T16:59:37.719Z,50.60
2022-10-08T17:02:41.665Z,56.95
2022-10-08T17:05:47.888Z,50.75
2022-10-08T17:08:52.667Z,44.60
2022-10-08T17:12:16.518Z,40.80
2022-10-08T17:15:34.453Z,34.23
2022-10-08T17:18:46.779Z,24.95
2022-10-08T17:21:58.402Z,17.37
2022-10-08T17:25:01.247Z,17.60
2022-10-08T17:28:11.573Z,18.13
2022-10-08T17:31:18.859Z,17.10
2022-10-08T17:34:22.188Z,17.42
2022-10-08T17:37:28.909Z,18.55
2022-10-08T17:40:43.638Z,19.40
2022-10-08T17:44:02.350Z,20.20
2022-10-08T17:47:11.525Z,21.03
2022-10-08T17:50:17.557Z,21.83
2022-10-08T17:53:28.461Z,21.87
2022-10-08T17:56:34.710Z,21.55
2022-10-08T17:59:43.866Z,22.03
2022-10-08T18:02:52.017Z,22.03
2022-10-08T18:06:04.507Z,21.98
2022-10-08T18:09:21.202Z,23.00
2022-10-08T18:12:37.186Z,21.30
2022-10-08T18:15:47.245Z,21.90
2022-10-08T18:18:56.496Z,22.60
2022-10-08T18:22:02.084Z,25.45
2022-10-08T18:25:21.494Z,24.33
2022-10-08T18:28:31.984Z,26.52
2022-10-08T18:31:50.369Z,25.03
2022-10-08T18:35:00.433Z,26.07
2022-10-08T18:38:09.463Z,26.77
2022-10-08T18:41:23.984Z,27.23
2022-10-08T18:44:30.786Z,26.08
2022-10-08T18:47:34.314Z,26.43
2022-10-08T18:50:49.149Z,26.77
2022-10-08T18:53:59.492Z,33.22
2022-10-08T18:57:02.949Z,32.80
2022-10-08T19:00:08.988Z,30.17
2022-10-08T19:03:34.454Z,29.47
2022-10-08T19:06:42.595Z,30.27
2022-10-08T19:09:48.187Z,31.92
2022-10-08T19:13:00.001Z,29.90
2022-10-08T19:16:14.529Z,29.60
2022-10-08T19:19:25.427Z,31.87
2022-10-08T19:22:36.406Z,29.83
2022-10-08T19:25:44.086Z,29.25
2022-10-08T19:28:55.506Z,29.92
2022-10-08T19:32:02.423Z,30.05
2022-10-08T19:35:07.456Z,29.27
2022-10-08T19:38:34.507Z,29.13
2022-10-08T19:41:48.117Z,27.48
2022-10-08T19:44:59.879Z,27.90
2022-10-08T19:48:17.362Z,28.20
2022-10-08T19:51:23.729Z,27.53
2022-10-08T19:54:33.207Z,28.57
2022-10-08T19:57:40.482Z,30.62
2022-10-08T20:00:50.500Z,30.50
2022-10-08T20:03:57.722Z,30.85
2022-10-08T20:07:11.405Z,29.20
2022-10-08T20:10:28.470Z,29.97
2022-10-08T20:13:40.771Z,30.25
2022-10-08T20:16:44.583Z,33.75
2022-10-08T20:19:47.556Z,31.40
2022-10-08T20:22:54.226Z,32.17
2022-10-08T20:26:27.444Z,33.77
2022-10-08T20:29:34.157Z,33.47
2022-10-08T20:32:40.469Z,34.95
2022-10-08T20:35:44.504Z,35.10
2022-10-08T20:39:00.692Z,34.80
2022-10-08T20:42:10.715Z,36.13
2022-10-08T20:45:19.493Z,38.50
2022-10-08T20:48:24.461Z,37.78
2022-10-08T20:51:29.600Z,39.28
2022-10-08T20:54:35.906Z,38.73
2022-10-08T20:57:40.119Z,36.13
2022-10-08T21:00:43.265Z,36.30
2022-10-08T21:03:47.884Z,37.80
2022-10-08T21:06:53.461Z,35.78
2022-10-08T21:09:56.681Z,36.40
2022-10-08T21:12:59.943Z,33.20
2022-10-08T21:16:06.083Z,33.85
2022-10-08T21:19:16.623Z,33.53
2022-10-08T21:22:19.510Z,28.90
2022-10-08T21:25:23.493Z,28.80
2022-10-08T21:28:29.476Z,27.73
2022-10-08T21:31:34.921Z,27.75
2022-10-08T21:34:39.366Z,27.10
2022-10-08T21:37:42.275Z,27.73
2022-10-08T21:40:57.013Z,29.33
2022-10-08T21:44:02.669Z,26.37
2022-10-08T21:47:05.782Z,27.37
2022-10-08T21:50:10.652Z,27.37
2022-10-08T21:53:15.003Z,26.40
2022-10-08T21:56:22.839Z,26.13
2022-10-08T21:59:27.434Z,25.80
2022-10-08T22:02:32.354Z,24.30
2022-10-08T22:05:35.427Z,24.25
2022-10-08T22:08:38.550Z,24.08
2022-10-08T22:11:41.534Z,23.63
2022-10-08T22:14:44.160Z,22.83
2022-10-08T22:17:48.538Z,21.90
2022-10-08T22:20:51.637Z,22.40
2022-10-08T22:23:56.714Z,23.40
2022-10-08T22:27:03.648Z,23.87
2022-10-08T22:30:08.494Z,22.60
2022-10-08T22:33:10.960Z,21.48
2022-10-08T22:36:19.449Z,23.70
2022-10-08T22:39:22.337Z,21.77
2022-10-08T22:42:25.238Z,22.90
2022-10-08T22:45:28.237Z,22.63
2022-10-08T22:48:32.783Z,22.67
2022-10-08T22:51:35.922Z,23.33
2022-10-08T22:54:46.485Z,23.00
2022-10-08T22:57:49.992Z,23.00
2022-10-08T23:01:08.399Z,21.47
2022-10-08T23:04:17.816Z,23.00
2022-10-08T23:07:22.435Z,23.50
2022-10-08T23:10:26.165Z,22.83
2022-10-08T23:13:29.942Z,22.03
2022-10-08T23:16:33.848Z,23.57
2022-10-08T23:19:37.605Z,23.08
2022-10-08T23:22:40.227Z,22.77
2022-10-08T23:25:53.723Z,22.95
2022-10-08T23:28:59.315Z,24.10
2022-10-08T23:32:02.931Z,23.10
2022-10-08T23:35:05.873Z,22.90
2022-10-08T23:38:09.715Z,23.38
2022-10-08T23:41:13.133Z,24.08
2022-10-08T23:44:16.412Z,24.53
2022-10-08T23:47:19.771Z,24.10
2022-10-08T23:50:22.964Z,23.60
2022-10-08T23:53:31.914Z,23.25
2022-10-08T23:56:35.139Z,23.27
2022-10-08T23:59:37.983Z,23.93
